This is the latest recevied weather packets stored in our database for station/object HP1PCR-13. If no packets are shown the sender has not sent any weather packets the latest 10 day(s).
| Time | Temp. | Humidity | Pressure | Rain* | Wind** | Luminosity | Snow |
|---|---|---|---|---|---|---|---|
| 1777948975 | 32.78° C | 41% | 1003.9 hPa | - | - | - | - |
| 1777948371 | 32.78° C | 41% | 1003.8 hPa | - | - | - | - |
| 1777947766 | 32.78° C | 41% | 1003.8 hPa | - | - | - | - |
| 1777947163 | 32.78° C | 40% | 1003.6 hPa | - | - | - | - |
| 1777946558 | 32.78° C | 40% | 1003.4 hPa | - | - | - | - |
| 1777945954 | 32.78° C | 40% | 1003.4 hPa | - | - | - | - |
| 1777945350 | 32.78° C | 40% | 1003.3 hPa | - | - | - | - |
| 1777941726 | 31.11° C | 38% | 1002.9 hPa | - | - | - | - |
| 1777941122 | 31.11° C | 37% | 1002.9 hPa | - | - | - | - |
| 1777940517 | 31.11° C | 35% | 1002.9 hPa | - | - | - | - |
| 1777939913 | 30.56° C | 35% | 1002.8 hPa | - | - | - | - |
| 1777939310 | 30.56° C | 33% | 1002.5 hPa | - | - | - | - |
| 1777938705 | 30.56° C | 30% | 1002.3 hPa | - | - | - | - |
| 1777938101 | 31.11° C | 31% | 1002.2 hPa | - | - | - | - |
| 1777937497 | 30.56° C | 28% | 1002 hPa | - | - | - | - |
| 1777936893 | 31.11° C | 28% | 1001.9 hPa | - | - | - | - |
| 1777936291 | 31.11° C | 27% | 1001.9 hPa | - | - | - | - |
| 1777935684 | 31.67° C | 28% | 1001.9 hPa | - | - | - | - |
| 1777935080 | 32.22° C | 28% | 1001.8 hPa | - | - | - | - |
| 1777934476 | 32.22° C | 29% | 1001.8 hPa | - | - | - | - |
| 1777933872 | 32.78° C | 32% | 1001.8 hPa | - | - | - | - |
| 1777933268 | 33.33° C | 33% | 1001.6 hPa | - | - | - | - |
| 1777932664 | 33.89° C | 36% | 1001.7 hPa | - | - | - | - |
| 1777932060 | 33.89° C | 37% | 1001.6 hPa | - | - | - | - |
| 1777931456 | 33.89° C | 38% | 1001.7 hPa | - | - | - | - |
* Rain since midnight (hover to see other rain measurements)
** Current wind speed in m/s (hover to see current wind gust speed)